createdAt,value
2023-04-02T00:01:23.915Z,80.80
2023-04-02T00:03:59.890Z,80.00
2023-04-02T00:06:33.277Z,80.40
2023-04-02T00:09:23.028Z,79.70
2023-04-02T00:11:55.954Z,79.40
2023-04-02T00:14:30.693Z,79.80
2023-04-02T00:17:01.716Z,80.60
2023-04-02T00:19:58.900Z,80.50
2023-04-02T00:22:30.211Z,79.90
2023-04-02T00:25:00.789Z,79.10
2023-04-02T00:27:30.946Z,80.10
2023-04-02T00:30:00.616Z,79.50
2023-04-02T00:32:39.203Z,79.60
2023-04-02T00:35:28.831Z,79.50
2023-04-02T00:37:59.177Z,79.20
2023-04-02T00:40:31.120Z,79.40
2023-04-02T00:43:04.637Z,79.60
2023-04-02T00:45:38.069Z,79.90
2023-04-02T00:48:43.463Z,80.50
2023-04-02T00:51:29.848Z,80.40
2023-04-02T00:54:03.940Z,79.70
2023-04-02T01:01:09.166Z,79.60
2023-04-02T01:03:40.115Z,78.40
2023-04-02T01:09:11.814Z,78.10
2023-04-02T01:11:45.995Z,78.00
2023-04-02T01:14:42.437Z,78.50
2023-04-02T01:17:49.203Z,78.00
2023-04-02T01:20:53.924Z,78.50
2023-04-02T01:23:44.046Z,77.70
2023-04-02T01:26:31.571Z,78.10
2023-04-02T01:29:16.184Z,77.80
2023-04-02T01:31:47.163Z,77.50
2023-04-02T01:34:19.170Z,77.70
2023-04-02T01:36:50.180Z,76.90
2023-04-02T01:39:18.059Z,77.40
2023-04-02T01:42:30.860Z,77.40
2023-04-02T01:45:14.223Z,77.00
2023-04-02T01:47:43.393Z,77.00
2023-04-02T01:50:20.310Z,77.00
2023-04-02T01:52:52.909Z,76.60
2023-04-02T01:55:40.290Z,76.40
2023-04-02T01:58:09.758Z,76.20
2023-04-02T02:00:44.202Z,76.00
2023-04-02T02:03:15.977Z,75.60
2023-04-02T02:05:44.538Z,75.60
2023-04-02T02:08:21.538Z,75.50
2023-04-02T02:10:51.060Z,75.40
2023-04-02T02:13:20.628Z,75.30
2023-04-02T02:15:48.821Z,75.10
2023-04-02T02:18:24.332Z,74.90
2023-04-02T02:20:54.478Z,74.70
2023-04-02T02:23:24.768Z,74.60
2023-04-02T02:25:54.929Z,74.30
2023-04-02T02:28:30.161Z,74.10
2023-04-02T02:31:23.804Z,73.90
2023-04-02T02:33:55.414Z,73.60
2023-04-02T02:36:47.467Z,73.40
2023-04-02T02:39:37.258Z,73.20
2023-04-02T02:44:41.926Z,72.40
2023-04-02T02:48:13.280Z,71.10
2023-04-02T02:50:42.857Z,71.90
2023-04-02T02:53:21.666Z,71.40
2023-04-02T02:55:56.005Z,70.70
2023-04-02T02:58:31.736Z,71.10
2023-04-02T03:01:02.605Z,70.80
2023-04-02T03:03:35.493Z,70.70
2023-04-02T03:06:17.655Z,70.00
2023-04-02T03:09:19.475Z,69.80
2023-04-02T03:11:54.300Z,70.00
2023-04-02T03:14:22.248Z,68.70
2023-04-02T03:17:00.658Z,69.50
2023-04-02T03:19:57.035Z,69.20
2023-04-02T03:22:47.732Z,67.40
2023-04-02T03:25:27.682Z,68.70
2023-04-02T03:28:03.032Z,68.70
2023-04-02T03:30:31.840Z,68.40
2023-04-02T03:33:24.613Z,68.30
2023-04-02T03:36:20.915Z,67.10
2023-04-02T03:38:56.689Z,66.30
2023-04-02T03:41:53.419Z,66.40
2023-04-02T03:44:32.282Z,67.00
2023-04-02T03:47:09.614Z,66.60
2023-04-02T03:50:15.855Z,65.70
2023-04-02T03:52:44.091Z,65.60
2023-04-02T03:55:19.688Z,66.30
2023-04-02T03:57:48.248Z,65.90
2023-04-02T04:00:26.247Z,65.70
2023-04-02T04:03:00.282Z,64.90
2023-04-02T04:05:39.262Z,65.80
2023-04-02T04:08:18.121Z,65.90
2023-04-02T04:10:47.765Z,65.60
2023-04-02T04:13:22.533Z,65.20
2023-04-02T04:16:09.240Z,65.00
2023-04-02T04:18:52.899Z,64.60
2023-04-02T04:21:30.333Z,64.20
2023-04-02T04:24:24.247Z,64.10
2023-04-02T04:27:10.348Z,63.10
2023-04-02T04:30:06.267Z,64.90
2023-04-02T04:33:04.221Z,63.00
2023-04-02T04:35:37.409Z,63.90
2023-04-02T04:38:22.254Z,63.80
2023-04-02T04:40:54.595Z,62.40
2023-04-02T04:43:48.346Z,62.20
2023-04-02T04:46:26.321Z,62.40
2023-04-02T04:49:09.241Z,62.30
2023-04-02T04:51:41.173Z,60.60
2023-04-02T04:54:14.270Z,61.80
2023-04-02T04:56:49.495Z,61.50
2023-04-02T04:59:43.804Z,62.00
2023-04-02T05:02:24.791Z,60.20
2023-04-02T05:04:54.967Z,60.40
2023-04-02T05:07:29.189Z,61.70
2023-04-02T05:10:12.403Z,60.50
2023-04-02T05:12:51.402Z,60.90
2023-04-02T05:15:23.995Z,61.30
2023-04-02T05:18:17.781Z,58.70
2023-04-02T05:21:00.006Z,60.20
2023-04-02T05:23:30.426Z,60.80
2023-04-02T05:26:24.089Z,60.50
2023-04-02T05:29:02.257Z,60.20
2023-04-02T05:31:46.937Z,59.70
2023-04-02T05:34:22.324Z,59.20
2023-04-02T05:36:51.573Z,58.90
2023-04-02T05:39:25.883Z,59.10
2023-04-02T05:42:08.494Z,58.90
2023-04-02T05:44:41.933Z,58.80
2023-04-02T05:47:23.493Z,58.30
2023-04-02T05:50:17.238Z,57.60
2023-04-02T05:52:52.404Z,57.80
2023-04-02T05:55:21.358Z,56.30
2023-04-02T05:58:21.336Z,56.90
2023-04-02T06:01:03.314Z,55.90
2023-04-02T06:04:01.945Z,57.10
2023-04-02T06:07:16.088Z,56.90
2023-04-02T06:10:07.122Z,56.00
2023-04-02T06:12:46.632Z,56.60
2023-04-02T06:15:21.986Z,56.10
2023-04-02T06:18:00.791Z,55.50
2023-04-02T06:20:29.618Z,55.10
2023-04-02T06:23:40.816Z,54.40
2023-04-02T06:26:41.354Z,55.60
2023-04-02T06:29:16.453Z,55.10
2023-04-02T06:32:00.566Z,54.60
2023-04-02T06:34:31.483Z,55.10
2023-04-02T06:37:33.520Z,55.20
2023-04-02T06:40:04.073Z,54.80
2023-04-02T06:42:35.877Z,54.50
2023-04-02T06:45:05.124Z,53.90
2023-04-02T06:47:47.354Z,54.80
2023-04-02T06:50:32.108Z,55.00
2023-04-02T06:53:06.769Z,54.90
2023-04-02T06:55:45.730Z,54.90
2023-04-02T06:58:16.268Z,54.70
2023-04-02T07:00:47.761Z,54.60
2023-04-02T07:03:26.269Z,53.90
2023-04-02T07:05:55.882Z,54.60
2023-04-02T07:08:23.477Z,54.10
2023-04-02T07:10:51.744Z,54.40
2023-04-02T07:13:34.734Z,53.80
2023-04-02T07:16:37.400Z,54.40
2023-04-02T07:19:16.515Z,54.20
2023-04-02T07:21:51.546Z,54.20
2023-04-02T07:24:20.441Z,54.20
2023-04-02T07:26:48.702Z,54.20
2023-04-02T07:29:18.362Z,54.20
2023-04-02T07:31:49.321Z,54.30
2023-04-02T07:34:17.482Z,54.40
2023-04-02T07:36:46.634Z,54.40
2023-04-02T07:39:14.675Z,53.70
2023-04-02T07:41:59.701Z,53.10
2023-04-02T07:44:28.878Z,54.10
2023-04-02T07:46:57.339Z,54.00
2023-04-02T07:49:26.553Z,52.40
2023-04-02T07:51:55.373Z,52.80
2023-04-02T07:54:23.551Z,52.20
2023-04-02T07:57:19.759Z,53.40
2023-04-02T07:59:50.008Z,53.90
2023-04-02T08:02:23.027Z,53.20
2023-04-02T08:04:51.973Z,53.20
2023-04-02T08:07:20.315Z,53.40
2023-04-02T08:09:48.399Z,53.60
2023-04-02T08:12:16.850Z,53.90
2023-04-02T08:14:45.075Z,52.90
2023-04-02T08:17:13.942Z,53.80
2023-04-02T08:19:54.052Z,53.70
2023-04-02T08:22:23.880Z,52.40
2023-04-02T08:25:00.446Z,53.60
2023-04-02T08:27:28.589Z,53.00
2023-04-02T08:29:56.658Z,53.40
2023-04-02T08:32:29.519Z,53.60
2023-04-02T08:34:57.759Z,53.90
2023-04-02T08:37:28.090Z,53.50
2023-04-02T08:39:56.732Z,53.80
2023-04-02T08:42:40.186Z,53.90
2023-04-02T08:45:36.036Z,53.80
2023-04-02T08:48:07.002Z,51.60
2023-04-02T08:50:50.546Z,54.10
2023-04-02T08:53:39.482Z,54.10
2023-04-02T08:56:24.605Z,54.10
2023-04-02T08:58:56.939Z,54.40
2023-04-02T09:01:46.483Z,54.50
2023-04-02T09:04:15.830Z,54.20
2023-04-02T09:06:44.827Z,54.40
2023-04-02T09:09:15.968Z,53.70
2023-04-02T09:12:05.116Z,54.40
2023-04-02T09:15:06.492Z,54.20
2023-04-02T09:17:50.687Z,54.30
2023-04-02T09:20:27.835Z,54.00
2023-04-02T09:22:57.171Z,54.00
2023-04-02T09:25:28.295Z,54.60
2023-04-02T09:27:58.582Z,54.10
2023-04-02T09:30:38.123Z,54.20
2023-04-02T09:33:11.113Z,54.10
2023-04-02T09:35:59.474Z,54.70
2023-04-02T09:38:33.295Z,54.80
2023-04-02T09:41:02.441Z,55.00
2023-04-02T09:43:32.874Z,54.50
2023-04-02T09:46:23.872Z,54.70
2023-04-02T09:49:05.014Z,55.00
2023-04-02T09:51:36.745Z,55.10
2023-04-02T09:54:04.906Z,54.90
2023-04-02T09:56:36.202Z,55.00
2023-04-02T09:59:20.147Z,55.10
2023-04-02T10:02:01.351Z,54.90
2023-04-02T10:04:48.429Z,55.00
2023-04-02T10:07:45.246Z,55.20
2023-04-02T10:10:45.137Z,55.20
2023-04-02T10:13:26.156Z,55.10
2023-04-02T10:16:21.548Z,54.40
2023-04-02T10:19:03.567Z,54.60
2023-04-02T10:21:44.322Z,55.10
2023-04-02T10:24:15.424Z,55.30
2023-04-02T10:26:54.899Z,55.00
2023-04-02T10:29:42.190Z,55.30
2023-04-02T10:32:24.822Z,55.10
2023-04-02T10:35:23.173Z,55.30
2023-04-02T10:38:27.288Z,55.30
2023-04-02T10:41:01.925Z,55.30
2023-04-02T10:43:55.901Z,55.40
2023-04-02T10:46:34.795Z,55.20
2023-04-02T10:49:25.548Z,55.00
2023-04-02T10:52:04.920Z,55.00
2023-04-02T10:54:52.914Z,55.00
2023-04-02T10:57:28.395Z,55.40
2023-04-02T11:00:30.989Z,55.60
2023-04-02T11:03:09.631Z,55.40
2023-04-02T11:05:46.856Z,55.60
2023-04-02T11:08:21.203Z,55.80
2023-04-02T11:11:04.802Z,55.90
2023-04-02T11:13:43.124Z,55.90
2023-04-02T11:16:16.875Z,55.90
2023-04-02T11:19:18.248Z,55.90
2023-04-02T11:21:59.908Z,56.10
2023-04-02T11:24:33.176Z,56.50
2023-04-02T11:27:09.153Z,56.20
2023-04-02T11:29:42.159Z,56.10
2023-04-02T11:32:23.417Z,56.20
2023-04-02T11:35:05.249Z,56.40
2023-04-02T11:37:35.347Z,56.20
2023-04-02T11:40:13.270Z,56.40
2023-04-02T11:42:51.804Z,56.30
2023-04-02T11:45:30.284Z,56.20
2023-04-02T11:48:02.908Z,56.50
2023-04-02T11:50:51.652Z,56.50
2023-04-02T11:53:38.032Z,56.30
2023-04-02T11:56:28.170Z,56.50
2023-04-02T11:59:19.748Z,56.60
2023-04-02T12:02:08.924Z,56.60
2023-04-02T12:05:00.090Z,56.60
2023-04-02T12:07:36.048Z,56.90
2023-04-02T12:10:18.073Z,57.00
2023-04-02T12:12:46.628Z,57.00
2023-04-02T12:15:33.047Z,56.80
2023-04-02T12:18:27.485Z,57.00
2023-04-02T12:20:57.978Z,56.80
2023-04-02T12:23:31.635Z,57.00
2023-04-02T12:26:01.524Z,56.70
2023-04-02T12:28:31.465Z,57.20
2023-04-02T12:31:22.065Z,57.30
2023-04-02T12:33:54.341Z,57.30
2023-04-02T12:36:24.730Z,57.30
2023-04-02T12:38:58.447Z,57.20
2023-04-02T12:41:30.621Z,57.20
2023-04-02T12:44:20.286Z,57.50
2023-04-02T12:46:55.442Z,57.60
2023-04-02T12:49:54.244Z,57.80
2023-04-02T12:52:28.808Z,57.90
2023-04-02T12:55:03.920Z,58.00
2023-04-02T12:57:34.610Z,58.10
2023-04-02T13:00:23.624Z,58.20
2023-04-02T13:03:20.513Z,58.20
2023-04-02T13:05:54.528Z,58.30
2023-04-02T13:08:44.021Z,58.20
2023-04-02T13:11:12.056Z,58.40
2023-04-02T13:13:42.829Z,58.40
2023-04-02T13:16:20.015Z,58.20
2023-04-02T13:18:50.902Z,58.40
2023-04-02T13:21:29.988Z,58.40
2023-04-02T13:23:58.115Z,58.40
2023-04-02T13:26:31.168Z,58.50
2023-04-02T13:29:17.239Z,58.50
2023-04-02T13:31:46.078Z,58.60
2023-04-02T13:34:14.268Z,58.80
2023-04-02T13:36:42.371Z,59.50
2023-04-02T13:39:11.620Z,58.90
2023-04-02T13:41:47.626Z,59.00
2023-04-02T13:44:42.287Z,59.10
2023-04-02T13:47:15.529Z,59.80
2023-04-02T13:49:49.847Z,59.30
2023-04-02T13:52:18.392Z,59.40
2023-04-02T13:54:49.532Z,60.00
2023-04-02T13:57:17.988Z,59.70
2023-04-02T13:59:45.957Z,60.20
2023-04-02T14:02:18.437Z,59.90
2023-04-02T14:04:51.150Z,60.00
2023-04-02T14:07:36.986Z,60.00
2023-04-02T14:10:20.975Z,60.00
2023-04-02T14:13:08.350Z,60.10
2023-04-02T14:16:15.047Z,60.20
2023-04-02T14:19:08.080Z,60.20
2023-04-02T14:22:09.499Z,60.20
2023-04-02T14:24:56.734Z,60.30
2023-04-02T14:27:40.471Z,60.40
2023-04-02T14:30:48.186Z,60.30
2023-04-02T14:33:49.975Z,60.40
2023-04-02T14:36:46.091Z,60.60
2023-04-02T14:39:35.987Z,60.50
2023-04-02T14:42:25.269Z,60.70
2023-04-02T14:45:03.404Z,60.90
2023-04-02T14:47:55.294Z,60.80
2023-04-02T14:50:40.715Z,60.80
2023-04-02T14:53:28.033Z,61.00
2023-04-02T14:55:58.987Z,61.00
2023-04-02T14:58:37.571Z,60.90
2023-04-02T15:01:47.300Z,61.00
2023-04-02T15:04:17.705Z,61.50
2023-04-02T15:06:52.835Z,61.10
2023-04-02T15:09:43.448Z,61.20
2023-04-02T15:12:23.160Z,61.40
2023-04-02T15:15:36.915Z,61.40
2023-04-02T15:18:11.170Z,61.50
2023-04-02T15:21:21.475Z,61.80
2023-04-02T15:24:11.186Z,61.90
2023-04-02T15:27:21.830Z,61.90
2023-04-02T15:29:56.635Z,61.90
2023-04-02T15:32:49.870Z,62.00
2023-04-02T15:35:59.892Z,62.10
2023-04-02T15:38:45.032Z,62.20
2023-04-02T15:41:26.383Z,61.90
2023-04-02T15:44:17.059Z,61.90
2023-04-02T15:47:09.645Z,62.10
2023-04-02T15:49:47.825Z,62.00
2023-04-02T15:52:18.846Z,62.00
2023-04-02T15:55:21.889Z,62.20
2023-04-02T15:58:14.065Z,62.50
2023-04-02T16:01:17.006Z,62.30
2023-04-02T16:03:54.424Z,62.20
2023-04-02T16:06:32.688Z,62.20
2023-04-02T16:09:00.617Z,62.70
2023-04-02T16:11:28.644Z,62.70
2023-04-02T16:14:22.893Z,62.60
2023-04-02T16:16:53.740Z,63.20
2023-04-02T16:19:37.984Z,62.90
2023-04-02T16:22:29.911Z,62.80
2023-04-02T16:28:34.120Z,63.50
2023-04-02T16:31:20.035Z,63.70
2023-04-02T16:34:12.556Z,63.60
2023-04-02T16:37:09.065Z,63.40
2023-04-02T16:39:51.710Z,64.50
2023-04-02T16:42:37.857Z,63.90
2023-04-02T16:45:19.316Z,65.00
2023-04-02T16:47:57.454Z,64.50
2023-04-02T16:50:47.333Z,64.40
2023-04-02T16:53:31.667Z,65.00
2023-04-02T16:56:43.852Z,65.20
2023-04-02T16:59:32.347Z,65.30
2023-04-02T17:02:22.004Z,65.10
2023-04-02T17:05:10.146Z,65.10
2023-04-02T17:08:22.795Z,65.90
2023-04-02T17:11:06.202Z,65.80
2023-04-02T17:13:48.680Z,66.90
2023-04-02T17:16:33.183Z,66.00
2023-04-02T17:19:02.498Z,66.40
2023-04-02T17:21:34.605Z,66.20
2023-04-02T17:24:28.901Z,66.50
2023-04-02T17:27:21.616Z,66.40
2023-04-02T17:29:55.752Z,66.40
2023-04-02T17:32:34.191Z,66.30
2023-04-02T17:35:33.158Z,67.00
2023-04-02T17:38:18.771Z,69.30
2023-04-02T17:41:09.966Z,67.20
2023-04-02T17:43:54.080Z,66.90
2023-04-02T17:47:04.332Z,67.20
2023-04-02T17:50:07.994Z,67.70
2023-04-02T17:52:45.414Z,67.00
2023-04-02T17:55:23.552Z,67.30
2023-04-02T17:58:36.561Z,68.00
2023-04-02T18:01:18.505Z,68.90
2023-04-02T18:04:24.700Z,68.10
2023-04-02T18:06:55.914Z,67.90
2023-04-02T18:09:47.962Z,67.60
2023-04-02T18:12:26.448Z,67.50
2023-04-02T18:15:07.659Z,67.70
2023-04-02T18:17:53.393Z,68.10
2023-04-02T18:20:45.263Z,68.20
2023-04-02T18:23:25.539Z,67.60
2023-04-02T18:26:16.406Z,69.30
2023-04-02T18:29:11.780Z,68.00
2023-04-02T18:31:39.691Z,69.40
2023-04-02T18:34:35.129Z,68.70
2023-04-02T18:37:28.015Z,68.20
2023-04-02T18:40:28.034Z,69.50
2023-04-02T18:43:14.400Z,68.90
2023-04-02T18:46:01.042Z,68.30
2023-04-02T18:48:41.352Z,68.80
2023-04-02T18:51:22.354Z,69.80
2023-04-02T18:54:11.377Z,69.40
2023-04-02T18:56:58.157Z,69.00
2023-04-02T18:59:57.624Z,69.50
2023-04-02T19:02:47.166Z,69.80
2023-04-02T19:05:37.321Z,69.50
2023-04-02T19:08:14.706Z,69.90
2023-04-02T19:10:48.707Z,69.40
2023-04-02T19:13:22.192Z,70.00
2023-04-02T19:15:58.896Z,70.50
2023-04-02T19:18:39.227Z,69.60
2023-04-02T19:21:23.992Z,69.60
2023-04-02T19:24:08.110Z,71.30
2023-04-02T19:26:51.997Z,70.50
2023-04-02T19:29:34.551Z,69.90
2023-04-02T19:32:20.921Z,70.50
2023-04-02T19:35:19.266Z,70.60
2023-04-02T19:41:42.650Z,69.90
2023-04-02T19:44:39.223Z,72.10
2023-04-02T19:47:08.652Z,72.00
2023-04-02T19:49:36.856Z,71.60
2023-04-02T19:52:05.119Z,71.70
2023-04-02T19:54:34.645Z,71.80
2023-04-02T19:57:05.252Z,72.40
2023-04-02T19:59:33.602Z,71.90
2023-04-02T20:02:06.062Z,72.00
2023-04-02T20:04:34.495Z,72.20
2023-04-02T20:07:02.607Z,71.80
2023-04-02T20:09:30.831Z,71.90
2023-04-02T20:11:58.781Z,74.10
2023-04-02T20:14:26.934Z,72.30
2023-04-02T20:16:56.909Z,72.50
2023-04-02T20:19:24.610Z,74.00
2023-04-02T20:21:52.569Z,73.60
2023-04-02T20:24:20.690Z,73.90
2023-04-02T20:26:48.630Z,74.20
2023-04-02T20:29:16.849Z,73.40
2023-04-02T20:31:44.945Z,74.40
2023-04-02T20:34:13.975Z,74.30
2023-04-02T20:36:42.212Z,72.90
2023-04-02T20:39:12.244Z,73.30
2023-04-02T20:41:39.782Z,73.90
2023-04-02T20:44:07.872Z,74.20
2023-04-02T20:46:37.010Z,74.90
2023-04-02T20:49:05.107Z,74.80
2023-04-02T20:51:34.627Z,74.80
2023-04-02T20:54:02.624Z,74.50
2023-04-02T20:56:31.402Z,74.60
2023-04-02T20:58:59.460Z,75.30
2023-04-02T21:01:30.443Z,76.20
2023-04-02T21:04:03.074Z,75.50
2023-04-02T21:06:33.986Z,75.40
2023-04-02T21:09:07.755Z,75.70
2023-04-02T21:11:37.836Z,76.20
2023-04-02T21:14:06.043Z,75.60
2023-04-02T21:16:35.146Z,75.70
2023-04-02T21:19:06.637Z,75.50
2023-04-02T21:21:36.314Z,76.10
2023-04-02T21:24:07.868Z,76.70
2023-04-02T21:26:39.572Z,76.30
2023-04-02T21:29:09.199Z,75.90
2023-04-02T21:31:39.678Z,76.20
2023-04-02T21:34:09.462Z,75.70
2023-04-02T21:36:43.002Z,75.50
2023-04-02T21:39:17.547Z,75.60
2023-04-02T21:41:47.366Z,76.00
2023-04-02T21:44:17.466Z,76.00
2023-04-02T21:46:46.017Z,75.70
2023-04-02T21:49:20.034Z,75.90
2023-04-02T21:51:50.256Z,75.20
2023-04-02T21:54:18.262Z,75.60
2023-04-02T21:56:48.381Z,75.90
2023-04-02T21:59:17.906Z,76.30
2023-04-02T22:01:51.329Z,76.30
2023-04-02T22:04:24.949Z,76.40
2023-04-02T22:06:53.781Z,77.00
2023-04-02T22:09:26.856Z,77.00
2023-04-02T22:11:59.444Z,77.10
2023-04-02T22:14:28.955Z,78.30
2023-04-02T22:16:58.991Z,77.50
2023-04-02T22:19:28.021Z,77.00
2023-04-02T22:21:57.030Z,76.70
2023-04-02T22:24:25.523Z,77.10
2023-04-02T22:26:55.840Z,77.40
2023-04-02T22:29:24.669Z,77.60
2023-04-02T22:31:54.933Z,77.00
2023-04-02T22:34:23.956Z,77.10
2023-04-02T22:36:54.411Z,77.60
2023-04-02T22:39:22.396Z,76.90
2023-04-02T22:41:50.525Z,76.40
2023-04-02T22:44:19.406Z,77.20
2023-04-02T22:46:47.379Z,77.60
2023-04-02T22:49:19.703Z,76.00
2023-04-02T22:51:47.962Z,77.90
2023-04-02T22:54:16.186Z,77.90
2023-04-02T22:56:44.227Z,78.10
2023-04-02T22:59:12.196Z,77.60
2023-04-02T23:01:40.204Z,78.60
2023-04-02T23:04:08.729Z,77.40
2023-04-02T23:06:36.692Z,78.30
2023-04-02T23:09:05.614Z,79.20
2023-04-02T23:11:34.491Z,78.70
2023-04-02T23:14:02.450Z,79.60
2023-04-02T23:16:31.110Z,78.50
2023-04-02T23:18:59.248Z,78.80
2023-04-02T23:21:27.988Z,78.30
2023-04-02T23:23:56.161Z,78.70
2023-04-02T23:26:30.147Z,79.20
2023-04-02T23:28:59.476Z,79.20
2023-04-02T23:31:27.764Z,78.60
2023-04-02T23:33:55.904Z,79.20
2023-04-02T23:36:30.227Z,79.40
2023-04-02T23:39:01.822Z,80.10
2023-04-02T23:41:31.942Z,79.40
2023-04-02T23:43:59.903Z,79.40
2023-04-02T23:46:29.169Z,79.00
2023-04-02T23:48:57.991Z,77.90
2023-04-02T23:51:27.735Z,78.70
2023-04-02T23:53:56.821Z,77.90
2023-04-02T23:56:26.184Z,77.50
2023-04-02T23:58:54.298Z,77.30
